Robbins, Illinois
Current Conditions -  °F | °C
As of 6:53 PM on Sunday 21 Dec 2014 (Local Time) from KMDW Reporting Station
Overcast Overcast  
Wind Chill:   Ceiling: 2200
Heat Index:   Visibility: 10mi
Dew Point: -1°   Wind: 8mph
Humidity: 73%   Direction: 160°SSE
Pressure: 30.09"   Gusts: NA
Location:  41.64°N, 87.7°W
Report Text: KMDW 220053Z 16007KT 10SM OVC022 03/M01 A3009 RMK AO2 SLP199 T00331011 $
Loading
Personal Weather Stations






























Interactive Weather Map New forecast layout! Learn more

10-Day Weather Forecast

Advertisements
Track Severe Weather on mobile